createdAt,value
2022-12-16T00:01:19.828Z,8.57
2022-12-16T00:03:51.934Z,11.70
2022-12-16T00:06:20.659Z,9.13
2022-12-16T00:08:48.542Z,8.93
2022-12-16T00:11:16.232Z,11.60
2022-12-16T00:13:44.122Z,10.00
2022-12-16T00:16:15.570Z,7.97
2022-12-16T00:18:43.563Z,9.93
2022-12-16T00:21:11.931Z,7.57
2022-12-16T00:23:41.571Z,6.97
2022-12-16T00:26:09.934Z,10.13
2022-12-16T00:28:37.616Z,7.93
2022-12-16T00:31:06.578Z,9.23
2022-12-16T00:33:36.135Z,7.30
2022-12-16T00:36:04.498Z,8.47
2022-12-16T00:38:32.273Z,7.10
2022-12-16T00:41:00.298Z,8.00
2022-12-16T00:43:28.011Z,8.17
2022-12-16T00:45:56.049Z,8.20
2022-12-16T00:48:25.426Z,7.77
2022-12-16T00:50:55.737Z,9.13
2022-12-16T00:53:26.041Z,8.93
2022-12-16T00:56:01.908Z,10.63
2022-12-16T00:58:30.028Z,9.40
2022-12-16T01:00:57.752Z,10.17
2022-12-16T01:03:26.194Z,9.10
2022-12-16T01:05:55.666Z,9.23
2022-12-16T01:08:24.327Z,12.17
2022-12-16T01:10:53.198Z,10.93
2022-12-16T01:13:25.612Z,11.23
2022-12-16T01:15:54.080Z,9.90
2022-12-16T01:18:22.440Z,9.33
2022-12-16T01:20:50.234Z,9.93
2022-12-16T01:23:20.300Z,9.57
2022-12-16T01:25:52.167Z,9.37
2022-12-16T01:28:20.219Z,11.17
2022-12-16T01:30:47.860Z,8.10
2022-12-16T01:33:15.860Z,8.60
2022-12-16T01:35:55.440Z,8.53
2022-12-16T01:38:25.680Z,8.63
2022-12-16T01:40:55.095Z,11.07
2022-12-16T01:43:27.019Z,9.20
2022-12-16T01:46:00.216Z,10.47
2022-12-16T01:48:37.020Z,9.63
2022-12-16T01:51:09.266Z,8.80
2022-12-16T01:53:40.606Z,10.70
2022-12-16T01:56:08.729Z,13.90
2022-12-16T01:58:39.569Z,11.90
2022-12-16T02:01:07.743Z,11.47
2022-12-16T02:03:37.599Z,12.67
2022-12-16T02:06:07.672Z,13.37
2022-12-16T02:08:37.888Z,12.93
2022-12-16T02:11:15.342Z,12.37
2022-12-16T02:13:59.573Z,11.67
2022-12-16T02:16:33.493Z,11.90
2022-12-16T02:19:05.764Z,15.33
2022-12-16T02:21:46.244Z,13.17
2022-12-16T02:24:42.222Z,13.60
2022-12-16T02:27:38.785Z,13.80
2022-12-16T02:30:23.231Z,12.77
2022-12-16T02:33:03.656Z,15.57
2022-12-16T02:35:36.920Z,15.93
2022-12-16T02:38:15.793Z,13.80
2022-12-16T02:40:46.868Z,16.57
2022-12-16T02:43:23.890Z,11.47
2022-12-16T02:45:51.925Z,16.07
2022-12-16T02:48:21.818Z,16.30
2022-12-16T02:50:52.026Z,11.77
2022-12-16T02:53:21.551Z,13.23
2022-12-16T02:56:00.898Z,16.90
2022-12-16T02:58:36.470Z,14.53
2022-12-16T03:01:12.998Z,12.67
2022-12-16T03:03:47.615Z,14.27
2022-12-16T03:06:18.986Z,13.63
2022-12-16T03:08:51.896Z,15.30
2022-12-16T03:11:19.863Z,14.03
2022-12-16T03:13:51.439Z,19.17
2022-12-16T03:16:23.807Z,19.33
2022-12-16T03:18:57.780Z,21.30
2022-12-16T03:21:30.162Z,17.07
2022-12-16T03:24:01.533Z,15.97
2022-12-16T03:26:35.361Z,15.37
2022-12-16T03:29:09.346Z,16.20
2022-12-16T03:31:41.477Z,15.73
2022-12-16T03:34:18.119Z,15.73
2022-12-16T03:36:51.776Z,13.57
2022-12-16T03:39:23.116Z,18.30
2022-12-16T03:41:54.370Z,18.73
2022-12-16T03:44:25.532Z,13.83
2022-12-16T03:46:53.768Z,17.07
2022-12-16T03:49:24.548Z,17.93
2022-12-16T03:51:53.540Z,22.43
2022-12-16T03:54:21.301Z,21.73
2022-12-16T03:56:48.979Z,18.53
2022-12-16T03:59:16.633Z,20.40
2022-12-16T04:01:44.702Z,18.97
2022-12-16T04:04:12.909Z,17.30
2022-12-16T04:06:41.915Z,20.63
2022-12-16T04:09:09.695Z,16.77
2022-12-16T04:11:55.271Z,21.47
2022-12-16T04:14:41.626Z,22.60
2022-12-16T04:17:31.704Z,18.57
2022-12-16T04:20:16.987Z,21.53
2022-12-16T04:23:03.396Z,15.83
2022-12-16T04:25:34.081Z,18.57
2022-12-16T04:28:01.804Z,20.80
2022-12-16T04:30:34.649Z,15.73
2022-12-16T04:33:23.334Z,16.47
2022-12-16T04:36:09.752Z,18.03
2022-12-16T04:38:56.337Z,19.30
2022-12-16T04:41:41.367Z,18.40
2022-12-16T04:44:27.156Z,13.40
2022-12-16T04:47:12.493Z,16.47
2022-12-16T04:49:57.860Z,13.17
2022-12-16T04:52:43.041Z,11.23
2022-12-16T04:55:30.523Z,11.33
2022-12-16T04:58:17.774Z,14.67
2022-12-16T05:01:06.301Z,14.33
2022-12-16T05:03:52.472Z,12.00
2022-12-16T05:06:38.193Z,13.77
2022-12-16T05:09:24.629Z,17.00
2022-12-16T05:12:12.095Z,13.97
2022-12-16T05:14:57.687Z,11.93
2022-12-16T05:17:42.669Z,11.93
2022-12-16T05:20:29.241Z,11.60
2022-12-16T05:23:14.995Z,11.43
2022-12-16T05:26:01.196Z,12.70
2022-12-16T05:28:48.501Z,13.57
2022-12-16T05:31:34.226Z,11.13
2022-12-16T05:34:19.707Z,13.97
2022-12-16T05:37:04.848Z,12.57
2022-12-16T05:39:50.180Z,14.90
2022-12-16T05:42:35.728Z,15.00
2022-12-16T05:45:23.454Z,11.50
2022-12-16T05:48:08.903Z,16.33
2022-12-16T05:50:55.755Z,12.77
2022-12-16T05:53:41.573Z,14.43
2022-12-16T05:56:38.448Z,14.80
2022-12-16T05:59:23.568Z,16.00
2022-12-16T06:02:10.516Z,16.50
2022-12-16T06:04:56.075Z,15.17
2022-12-16T06:07:41.540Z,16.07
2022-12-16T06:10:27.524Z,14.43
2022-12-16T06:13:12.741Z,17.10
2022-12-16T06:16:01.431Z,20.27
2022-12-16T06:18:50.458Z,15.13
2022-12-16T06:21:37.299Z,16.03
2022-12-16T06:24:28.528Z,21.70
2022-12-16T06:27:13.896Z,19.17
2022-12-16T06:29:59.118Z,19.63
2022-12-16T06:32:44.718Z,20.50
2022-12-16T06:35:31.207Z,17.90
2022-12-16T06:38:17.024Z,22.20
2022-12-16T06:41:01.993Z,22.20
2022-12-16T06:43:48.339Z,21.30
2022-12-16T06:46:33.960Z,21.67
2022-12-16T06:49:19.352Z,21.97
2022-12-16T06:52:06.677Z,22.60
2022-12-16T06:54:51.027Z,22.37
2022-12-16T06:57:36.779Z,24.33
2022-12-16T07:00:23.145Z,23.60
2022-12-16T07:03:08.574Z,28.13
2022-12-16T07:05:54.224Z,20.23
2022-12-16T07:08:41.251Z,23.67
2022-12-16T07:11:26.929Z,27.47
2022-12-16T07:14:12.290Z,18.93
2022-12-16T07:16:57.778Z,21.53
2022-12-16T07:19:42.985Z,25.83
2022-12-16T07:22:28.939Z,19.10
2022-12-16T07:25:15.670Z,19.87
2022-12-16T07:28:04.348Z,21.27
2022-12-16T07:30:49.553Z,20.17
2022-12-16T07:33:35.223Z,24.87
2022-12-16T07:36:21.008Z,28.70
2022-12-16T07:39:06.098Z,22.90
2022-12-16T07:41:52.691Z,22.13
2022-12-16T07:44:38.615Z,19.17
2022-12-16T07:47:24.086Z,27.97
2022-12-16T07:50:09.492Z,25.63
2022-12-16T07:52:55.375Z,25.17
2022-12-16T07:55:40.789Z,21.70
2022-12-16T07:58:28.263Z,28.83
2022-12-16T08:01:10.089Z,24.90
2022-12-16T08:03:56.290Z,23.30
2022-12-16T08:06:41.528Z,21.43
2022-12-16T08:09:32.381Z,23.07
2022-12-16T08:12:17.958Z,23.73
2022-12-16T08:15:04.895Z,25.57
2022-12-16T08:17:59.052Z,29.00
2022-12-16T08:20:49.460Z,23.30
2022-12-16T08:23:35.416Z,25.57
2022-12-16T08:26:21.395Z,23.53
2022-12-16T08:29:27.253Z,22.43
2022-12-16T08:32:13.973Z,20.80
2022-12-16T08:34:59.399Z,27.70
2022-12-16T08:37:44.930Z,26.30
2022-12-16T08:40:37.328Z,22.47
2022-12-16T08:43:23.121Z,25.50
2022-12-16T08:46:11.963Z,28.63
2022-12-16T08:48:59.255Z,26.13
2022-12-16T08:51:44.936Z,25.27
2022-12-16T08:54:30.261Z,23.70
2022-12-16T08:57:15.570Z,26.90
2022-12-16T09:00:00.771Z,32.17
2022-12-16T09:02:46.543Z,27.10
2022-12-16T09:05:33.695Z,27.40
2022-12-16T09:08:20.121Z,27.43
2022-12-16T09:11:05.403Z,24.93
2022-12-16T09:13:50.556Z,22.60
2022-12-16T09:16:37.195Z,22.63
2022-12-16T09:19:22.598Z,23.67
2022-12-16T09:22:09.144Z,28.77
2022-12-16T09:24:54.455Z,24.30
2022-12-16T09:27:41.205Z,25.83
2022-12-16T09:30:28.127Z,19.90
2022-12-16T09:33:13.626Z,18.53
2022-12-16T09:36:00.224Z,18.70
2022-12-16T09:38:46.651Z,25.60
2022-12-16T09:41:47.016Z,23.80
2022-12-16T09:44:45.557Z,24.47
2022-12-16T09:47:42.627Z,22.30
2022-12-16T09:50:37.532Z,24.30
2022-12-16T09:53:25.167Z,24.60
2022-12-16T09:56:12.263Z,21.93
2022-12-16T09:59:05.220Z,21.00
2022-12-16T10:01:54.697Z,23.87
2022-12-16T10:04:51.954Z,20.27
2022-12-16T10:07:40.372Z,25.97
2022-12-16T10:10:39.101Z,23.47
2022-12-16T10:13:36.104Z,24.63
2022-12-16T10:16:31.771Z,20.70
2022-12-16T10:19:26.411Z,23.67
2022-12-16T10:22:19.726Z,23.37
2022-12-16T10:25:29.421Z,22.50
2022-12-16T10:28:24.681Z,25.70
2022-12-16T10:31:12.043Z,19.73
2022-12-16T10:34:09.057Z,26.47
2022-12-16T10:36:56.097Z,23.20
2022-12-16T10:39:59.444Z,23.20
2022-12-16T10:42:48.758Z,22.77
2022-12-16T10:45:39.945Z,19.60
2022-12-16T10:48:27.601Z,21.17
2022-12-16T10:51:13.209Z,19.10
2022-12-16T10:53:58.614Z,23.17
2022-12-16T10:57:06.530Z,25.93
2022-12-16T10:59:54.487Z,21.57
2022-12-16T11:02:43.085Z,25.57
2022-12-16T11:05:49.216Z,19.97
2022-12-16T11:08:44.171Z,22.43
2022-12-16T11:11:40.075Z,21.00
2022-12-16T11:14:38.387Z,18.70
2022-12-16T11:17:32.385Z,20.43
2022-12-16T11:20:34.754Z,17.23
2022-12-16T11:23:32.398Z,24.40
2022-12-16T11:26:35.831Z,20.37
2022-12-16T11:29:25.963Z,15.80
2022-12-16T11:32:16.902Z,18.00
2022-12-16T11:35:08.232Z,20.97
2022-12-16T11:37:56.897Z,18.17
2022-12-16T11:40:44.738Z,13.83
2022-12-16T11:43:33.777Z,17.07
2022-12-16T11:46:22.835Z,13.50
2022-12-16T11:49:13.428Z,14.37
2022-12-16T11:52:28.037Z,15.07
2022-12-16T11:55:15.555Z,14.23
2022-12-16T11:58:09.062Z,14.43
2022-12-16T12:01:07.719Z,16.03
2022-12-16T12:04:01.712Z,15.53
2022-12-16T12:06:58.116Z,14.37
2022-12-16T12:09:46.083Z,14.47
2022-12-16T12:12:41.767Z,14.63
2022-12-16T12:15:41.978Z,17.73
2022-12-16T12:18:35.933Z,16.60
2022-12-16T12:21:27.650Z,14.40
2022-12-16T12:24:22.091Z,14.80
2022-12-16T12:27:15.922Z,15.77
2022-12-16T12:30:16.593Z,13.40
2022-12-16T12:33:14.241Z,16.17
2022-12-16T12:36:10.978Z,17.07
2022-12-16T12:39:05.855Z,16.13
2022-12-16T12:42:01.512Z,15.97
2022-12-16T12:45:00.591Z,14.40
2022-12-16T12:47:49.159Z,14.20
2022-12-16T12:50:46.789Z,13.43
2022-12-16T12:53:45.024Z,12.53
2022-12-16T12:56:41.729Z,14.17
2022-12-16T12:59:33.827Z,17.03
2022-12-16T13:02:23.577Z,15.30
2022-12-16T13:05:10.200Z,14.63
2022-12-16T13:07:57.231Z,12.43
2022-12-16T13:10:52.232Z,13.50
2022-12-16T13:13:49.100Z,11.57
2022-12-16T13:17:07.911Z,12.30
2022-12-16T13:19:59.926Z,13.50
2022-12-16T13:22:48.214Z,13.53
2022-12-16T13:25:56.692Z,11.83
2022-12-16T13:28:49.421Z,14.17
2022-12-16T13:31:35.500Z,11.93
2022-12-16T13:34:26.049Z,13.90
2022-12-16T13:37:20.784Z,14.53
2022-12-16T13:40:22.361Z,13.07
2022-12-16T13:43:13.846Z,15.47
2022-12-16T13:46:01.983Z,13.90
2022-12-16T13:48:56.945Z,13.07
2022-12-16T13:52:25.719Z,17.70
2022-12-16T13:55:27.347Z,15.07
2022-12-16T13:58:22.203Z,16.07
2022-12-16T14:01:16.683Z,12.43
2022-12-16T14:04:05.651Z,14.00
2022-12-16T14:06:53.658Z,15.70
2022-12-16T14:09:48.671Z,18.53
2022-12-16T14:12:52.981Z,14.20
2022-12-16T14:15:47.791Z,15.97
2022-12-16T14:18:44.660Z,15.33
2022-12-16T14:21:35.347Z,16.07
2022-12-16T14:24:29.647Z,17.43
2022-12-16T14:27:15.471Z,16.30
2022-12-16T14:30:02.636Z,17.23
2022-12-16T14:32:51.212Z,13.80
2022-12-16T14:35:38.845Z,21.77
2022-12-16T14:38:42.153Z,18.57
2022-12-16T14:41:34.488Z,18.33
2022-12-16T14:44:21.974Z,16.07
2022-12-16T14:47:09.052Z,17.53
2022-12-16T14:50:09.195Z,19.30
2022-12-16T14:52:54.752Z,16.37
2022-12-16T14:55:47.520Z,21.83
2022-12-16T14:58:35.074Z,18.23
2022-12-16T15:01:24.441Z,14.23
2022-12-16T15:04:12.390Z,17.43
2022-12-16T15:07:02.940Z,19.37
2022-12-16T15:09:52.974Z,17.00
2022-12-16T15:12:44.510Z,14.37
2022-12-16T15:15:34.931Z,16.17
2022-12-16T15:18:21.682Z,19.17
2022-12-16T15:21:10.711Z,17.70
2022-12-16T15:24:00.596Z,17.37
2022-12-16T15:26:48.854Z,20.03
2022-12-16T15:29:47.358Z,17.63
2022-12-16T15:32:48.034Z,14.80
2022-12-16T15:35:43.877Z,18.73
2022-12-16T15:38:31.043Z,19.20
2022-12-16T15:41:17.968Z,18.60
2022-12-16T15:44:16.810Z,17.83
2022-12-16T15:47:06.907Z,18.00
2022-12-16T15:49:57.975Z,18.73
2022-12-16T15:52:54.676Z,19.20
2022-12-16T15:55:45.814Z,18.27
2022-12-16T15:58:37.906Z,19.53
2022-12-16T16:01:25.193Z,17.37
2022-12-16T16:04:13.332Z,19.17
2022-12-16T16:07:15.245Z,18.63
2022-12-16T16:10:01.184Z,18.23
2022-12-16T16:12:46.642Z,23.87
2022-12-16T16:15:34.193Z,22.50
2022-12-16T16:18:21.634Z,22.13
2022-12-16T16:21:08.193Z,26.43
2022-12-16T16:23:54.272Z,20.30
2022-12-16T16:26:50.246Z,18.07
2022-12-16T16:29:47.216Z,23.70
2022-12-16T16:32:34.658Z,16.67
2022-12-16T16:35:20.180Z,22.60
2022-12-16T16:38:06.093Z,20.40
2022-12-16T16:40:54.251Z,20.87
2022-12-16T16:43:40.037Z,19.67
2022-12-16T16:46:46.322Z,16.63
2022-12-16T16:49:36.031Z,21.80
2022-12-16T16:52:21.450Z,18.07
2022-12-16T16:55:07.339Z,21.60
2022-12-16T16:57:56.243Z,20.33
2022-12-16T17:00:42.032Z,22.47
2022-12-16T17:03:27.969Z,23.77
2022-12-16T17:06:15.556Z,18.37
2022-12-16T17:09:00.873Z,19.13
2022-12-16T17:11:47.675Z,21.93
2022-12-16T17:14:35.566Z,16.67
2022-12-16T17:17:21.773Z,18.17
2022-12-16T17:20:07.947Z,16.50
2022-12-16T17:22:54.607Z,19.20
2022-12-16T17:25:40.610Z,18.90
2022-12-16T17:28:26.424Z,15.80
2022-12-16T17:31:11.929Z,17.87
2022-12-16T17:33:57.494Z,15.53
2022-12-16T17:36:42.840Z,17.23
2022-12-16T17:39:30.128Z,19.97
2022-12-16T17:42:16.033Z,17.43
2022-12-16T17:45:01.137Z,22.20
2022-12-16T17:47:47.472Z,15.73
2022-12-16T17:50:32.903Z,18.20
2022-12-16T17:53:18.607Z,15.37
2022-12-16T17:56:05.178Z,16.17
2022-12-16T17:58:54.107Z,18.40
2022-12-16T18:01:40.343Z,17.67
2022-12-16T18:04:26.200Z,14.77
2022-12-16T18:07:11.676Z,14.20
2022-12-16T18:09:57.196Z,17.10
2022-12-16T18:12:44.925Z,19.73
2022-12-16T18:15:30.033Z,17.53
2022-12-16T18:18:15.861Z,18.63
2022-12-16T18:21:01.343Z,20.13
2022-12-16T18:23:48.056Z,20.40
2022-12-16T18:26:33.745Z,19.20
2022-12-16T18:29:20.180Z,19.17
2022-12-16T18:32:06.521Z,15.23
2022-12-16T18:34:52.383Z,16.67
2022-12-16T18:37:42.081Z,15.73
2022-12-16T18:40:28.915Z,17.03
2022-12-16T18:43:17.216Z,18.23
2022-12-16T18:46:10.360Z,14.80
2022-12-16T18:49:04.831Z,12.93
2022-12-16T18:51:50.622Z,16.00
2022-12-16T18:54:36.365Z,13.20
2022-12-16T18:57:21.855Z,14.23
2022-12-16T19:00:07.836Z,16.73
2022-12-16T19:02:55.525Z,19.63
2022-12-16T19:05:41.635Z,12.97
2022-12-16T19:08:27.497Z,16.60
2022-12-16T19:11:15.806Z,15.57
2022-12-16T19:14:02.076Z,14.40
2022-12-16T19:16:48.066Z,17.23
2022-12-16T19:19:34.767Z,14.40
2022-12-16T19:22:20.985Z,25.87
2022-12-16T19:25:06.268Z,17.23
2022-12-16T19:27:52.731Z,16.83
2022-12-16T19:30:50.220Z,15.13
2022-12-16T19:33:35.692Z,13.53
2022-12-16T19:36:22.686Z,12.63
2022-12-16T19:39:08.805Z,11.13
2022-12-16T19:41:56.212Z,10.57
2022-12-16T19:44:41.918Z,13.60
2022-12-16T19:47:27.537Z,12.20
2022-12-16T19:50:12.922Z,14.87
2022-12-16T19:53:00.141Z,21.23
2022-12-16T19:55:45.508Z,12.97
2022-12-16T19:58:32.082Z,11.27
2022-12-16T20:01:17.462Z,13.43
2022-12-16T20:04:03.309Z,10.70
2022-12-16T20:06:49.440Z,15.07
2022-12-16T20:09:36.308Z,16.13
2022-12-16T20:12:21.907Z,14.80
2022-12-16T20:15:07.051Z,15.57
2022-12-16T20:17:52.467Z,16.13
2022-12-16T20:20:41.644Z,15.97
2022-12-16T20:23:27.514Z,11.70
2022-12-16T20:26:15.689Z,12.83
2022-12-16T20:29:02.359Z,11.70
2022-12-16T20:31:48.135Z,11.27
2022-12-16T20:34:33.741Z,12.93
2022-12-16T20:37:18.965Z,12.30
2022-12-16T20:40:04.708Z,10.90
2022-12-16T20:42:51.412Z,13.53
2022-12-16T20:45:38.983Z,12.37
2022-12-16T20:48:24.451Z,9.53
2022-12-16T20:51:13.628Z,10.43
2022-12-16T20:53:59.744Z,10.37
2022-12-16T20:56:45.076Z,12.43
2022-12-16T20:59:32.105Z,17.87
2022-12-16T21:02:27.928Z,14.47
2022-12-16T21:05:17.367Z,11.33
2022-12-16T21:08:02.944Z,11.00
2022-12-16T21:10:49.556Z,12.13
2022-12-16T21:13:36.483Z,9.10
2022-12-16T21:16:25.305Z,12.10
2022-12-16T21:19:11.472Z,11.47
2022-12-16T21:21:56.808Z,9.93
2022-12-16T21:24:43.050Z,13.40
2022-12-16T21:27:28.692Z,13.57
2022-12-16T21:30:14.158Z,10.07
2022-12-16T21:33:00.979Z,10.40
2022-12-16T21:35:47.014Z,14.47
2022-12-16T21:38:32.760Z,8.70
2022-12-16T21:41:17.984Z,13.03
2022-12-16T21:44:03.273Z,9.93
2022-12-16T21:46:48.802Z,9.40
2022-12-16T21:49:35.923Z,10.43
2022-12-16T21:52:20.964Z,10.47
2022-12-16T21:55:06.859Z,11.40
2022-12-16T21:57:53.332Z,11.10
2022-12-16T22:00:40.702Z,10.20
2022-12-16T22:03:26.357Z,12.73
2022-12-16T22:06:17.428Z,11.43
2022-12-16T22:09:03.030Z,12.47
2022-12-16T22:11:48.538Z,13.80
2022-12-16T22:14:34.600Z,10.27
2022-12-16T22:17:19.922Z,11.03
2022-12-16T22:20:05.648Z,12.93
2022-12-16T22:22:52.511Z,10.23
2022-12-16T22:25:38.011Z,11.73
2022-12-16T22:28:24.959Z,11.30
2022-12-16T22:31:16.150Z,11.87
2022-12-16T22:34:01.433Z,12.50
2022-12-16T22:36:47.082Z,12.93
2022-12-16T22:39:33.600Z,13.67
2022-12-16T22:42:18.898Z,12.53
2022-12-16T22:45:04.120Z,13.07
2022-12-16T22:47:49.703Z,15.23
2022-12-16T22:50:35.546Z,13.50
2022-12-16T22:53:21.220Z,14.17
2022-12-16T22:56:10.862Z,12.10
2022-12-16T22:58:55.244Z,17.83
2022-12-16T23:01:41.891Z,15.87
2022-12-16T23:04:27.566Z,15.90
2022-12-16T23:07:13.761Z,17.97
2022-12-16T23:09:59.514Z,14.70
2022-12-16T23:12:46.199Z,13.97
2022-12-16T23:15:32.435Z,14.67
2022-12-16T23:18:17.784Z,18.60
2022-12-16T23:21:05.440Z,16.53
2022-12-16T23:23:50.612Z,17.73
2022-12-16T23:26:37.332Z,18.40
2022-12-16T23:29:39.180Z,17.77
2022-12-16T23:32:24.347Z,20.33
2022-12-16T23:35:09.809Z,15.47
2022-12-16T23:37:55.003Z,22.17
2022-12-16T23:40:42.237Z,22.43
2022-12-16T23:43:27.454Z,16.93
2022-12-16T23:46:14.575Z,19.00
2022-12-16T23:48:59.954Z,20.10
2022-12-16T23:51:45.199Z,14.70
2022-12-16T23:54:30.267Z,17.30
2022-12-16T23:57:15.575Z,19.20
